createdAt,value
2019-02-26T00:00:21.427Z,1019.03
2019-02-26T00:01:21.074Z,1018.99
2019-02-26T00:02:19.820Z,1019.02
2019-02-26T00:03:19.785Z,1018.99
2019-02-26T00:04:21.044Z,1018.99
2019-02-26T00:05:21.389Z,1019.00
2019-02-26T00:06:20.656Z,1019.04
2019-02-26T00:07:23.393Z,1019.03
2019-02-26T00:08:21.422Z,1019.04
2019-02-26T00:09:22.366Z,1019.04
2019-02-26T00:10:22.289Z,1019.05
2019-02-26T00:11:19.054Z,1019.05
2019-02-26T00:12:21.940Z,1019.05
2019-02-26T00:13:19.029Z,1019.09
2019-02-26T00:14:20.329Z,1019.11
2019-02-26T00:15:19.005Z,1019.08
2019-02-26T00:16:20.527Z,1019.13
2019-02-26T00:17:19.585Z,1019.10
2019-02-26T00:18:21.340Z,1019.08
2019-02-26T00:19:18.954Z,1019.09
2019-02-26T00:20:18.942Z,1019.08
2019-02-26T00:21:20.445Z,1019.07
2019-02-26T00:22:18.917Z,1019.09
2019-02-26T00:23:19.834Z,1019.04
2019-02-26T00:24:18.891Z,1019.05
2019-02-26T00:25:20.412Z,1019.07
2019-02-26T00:26:20.640Z,1019.06
2019-02-26T00:27:18.854Z,1019.01
2019-02-26T00:28:19.766Z,1019.01
2019-02-26T00:29:18.833Z,1019.02
2019-02-26T00:30:18.822Z,1018.98
2019-02-26T00:31:19.616Z,1018.96
2019-02-26T00:32:18.794Z,1018.93
2019-02-26T00:33:19.548Z,1018.93
2019-02-26T00:34:18.767Z,1018.93
2019-02-26T00:35:20.689Z,1018.93
2019-02-26T00:36:18.741Z,1018.90
2019-02-26T00:37:19.998Z,1018.87
2019-02-26T00:38:19.865Z,1018.89
2019-02-26T00:39:20.525Z,1018.84
2019-02-26T00:40:20.163Z,1018.86
2019-02-26T00:41:20.649Z,1018.83
2019-02-26T00:42:21.540Z,1018.88
2019-02-26T00:43:23.343Z,1018.87
2019-02-26T00:44:21.149Z,1018.85
2019-02-26T00:45:22.363Z,1018.86
2019-02-26T00:46:18.614Z,1018.79
2019-02-26T00:47:18.602Z,1018.77
2019-02-26T00:48:18.589Z,1018.75
2019-02-26T00:49:19.101Z,1018.73
2019-02-26T00:50:18.563Z,1018.72
2019-02-26T00:51:20.563Z,1018.70
2019-02-26T00:52:18.538Z,1018.67
2019-02-26T00:53:21.222Z,1018.64
2019-02-26T00:54:22.166Z,1018.66
2019-02-26T00:55:18.498Z,1018.67
2019-02-26T00:56:18.485Z,1018.64
2019-02-26T00:57:18.474Z,1018.62
2019-02-26T00:58:18.460Z,1018.58
2019-02-26T00:59:18.447Z,1018.62
2019-02-26T01:00:18.434Z,1018.59
2019-02-26T01:01:19.939Z,1018.62
2019-02-26T01:02:18.409Z,1018.60
2019-02-26T01:03:18.395Z,1018.58
2019-02-26T01:04:18.383Z,1018.62
2019-02-26T01:05:18.371Z,1018.55
2019-02-26T01:06:18.360Z,1018.56
2019-02-26T01:07:19.120Z,1018.55
2019-02-26T01:08:19.845Z,1018.54
2019-02-26T01:09:18.318Z,1018.52
2019-02-26T01:10:19.324Z,1018.46
2019-02-26T01:11:19.411Z,1018.51
2019-02-26T01:12:18.384Z,1018.50
2019-02-26T01:13:20.108Z,1018.42
2019-02-26T01:14:20.239Z,1018.42
2019-02-26T01:15:18.240Z,1018.45
2019-02-26T01:16:18.278Z,1018.42
2019-02-26T01:17:18.828Z,1018.41
2019-02-26T01:18:20.129Z,1018.42
2019-02-26T01:19:19.897Z,1018.44
2019-02-26T01:20:19.530Z,1018.42
2019-02-26T01:21:22.158Z,1018.45
2019-02-26T01:22:18.157Z,1018.39
2019-02-26T01:23:19.467Z,1018.43
2019-02-26T01:24:18.125Z,1018.40
2019-02-26T01:25:20.457Z,1018.38
2019-02-26T01:26:18.099Z,1018.34
2019-02-26T01:27:18.086Z,1018.33
2019-02-26T01:28:18.645Z,1018.29
2019-02-26T01:29:20.484Z,1018.32
2019-02-26T01:30:23.641Z,1018.23
2019-02-26T01:31:19.815Z,1018.26
2019-02-26T01:32:20.555Z,1018.28
2019-02-26T01:33:18.010Z,1018.24
2019-02-26T01:34:19.919Z,1018.27
2019-02-26T01:35:17.984Z,1018.29
2019-02-26T01:36:20.416Z,1018.28
2019-02-26T01:37:17.959Z,1018.30
2019-02-26T01:38:18.827Z,1018.29
2019-02-26T01:39:19.223Z,1018.27
2019-02-26T01:40:21.066Z,1018.23
2019-02-26T01:41:20.334Z,1018.28
2019-02-26T01:42:21.645Z,1018.23
2019-02-26T01:43:17.883Z,1018.23
2019-02-26T01:44:17.871Z,1018.22
2019-02-26T01:45:19.507Z,1018.24
2019-02-26T01:46:18.759Z,1018.23
2019-02-26T01:47:19.570Z,1018.28
2019-02-26T01:48:18.554Z,1018.29
2019-02-26T01:49:19.202Z,1018.22
2019-02-26T01:50:17.797Z,1018.30
2019-02-26T01:51:19.364Z,1018.28
2019-02-26T01:52:17.769Z,1018.27
2019-02-26T01:53:19.804Z,1018.29
2019-02-26T01:54:17.745Z,1018.29
2019-02-26T01:55:18.398Z,1018.30
2019-02-26T01:56:19.919Z,1018.30
2019-02-26T01:57:17.707Z,1018.34
2019-02-26T01:58:17.695Z,1018.34
2019-02-26T01:59:19.057Z,1018.34
2019-02-26T02:00:17.669Z,1018.29
2019-02-26T02:01:19.201Z,1018.34
2019-02-26T02:02:20.279Z,1018.32
2019-02-26T02:03:18.935Z,1018.32
2019-02-26T02:04:19.514Z,1018.33
2019-02-26T02:05:19.674Z,1018.34
2019-02-26T02:06:18.147Z,1018.29
2019-02-26T02:07:18.950Z,1018.34
2019-02-26T02:08:18.490Z,1018.34
2019-02-26T02:09:18.682Z,1018.33
2019-02-26T02:10:17.543Z,1018.36
2019-02-26T02:11:17.530Z,1018.32
2019-02-26T02:12:17.518Z,1018.34
2019-02-26T02:13:17.505Z,1018.32
2019-02-26T02:14:17.495Z,1018.36
2019-02-26T02:15:20.792Z,1018.35
2019-02-26T02:16:17.467Z,1018.32
2019-02-26T02:17:17.455Z,1018.31
2019-02-26T02:18:18.124Z,1018.32
2019-02-26T02:19:20.121Z,1018.30
2019-02-26T02:20:21.037Z,1018.27
2019-02-26T02:21:17.405Z,1018.32
2019-02-26T02:22:19.085Z,1018.27
2019-02-26T02:23:19.389Z,1018.24
2019-02-26T02:24:18.247Z,1018.27
2019-02-26T02:25:17.355Z,1018.25
2019-02-26T02:26:17.342Z,1018.30
2019-02-26T02:27:19.425Z,1018.24
2019-02-26T02:28:19.581Z,1018.25
2019-02-26T02:29:19.140Z,1018.23
2019-02-26T02:30:22.450Z,1018.25
2019-02-26T02:31:17.280Z,1018.23
2019-02-26T02:32:17.267Z,1018.26
2019-02-26T02:33:23.170Z,1018.25
2019-02-26T02:34:17.242Z,1018.21
2019-02-26T02:35:19.190Z,1018.24
2019-02-26T02:36:20.330Z,1018.22
2019-02-26T02:37:18.568Z,1018.22
2019-02-26T02:38:20.500Z,1018.19
2019-02-26T02:39:18.202Z,1018.22
2019-02-26T02:40:17.167Z,1018.18
2019-02-26T02:41:17.155Z,1018.21
2019-02-26T02:42:19.017Z,1018.18
2019-02-26T02:43:18.072Z,1018.18
2019-02-26T02:44:17.900Z,1018.17
2019-02-26T02:45:20.714Z,1018.16
2019-02-26T02:46:17.091Z,1018.13
2019-02-26T02:47:17.079Z,1018.11
2019-02-26T02:48:17.116Z,1018.09
2019-02-26T02:49:17.900Z,1018.07
2019-02-26T02:50:18.429Z,1017.98
2019-02-26T02:51:17.047Z,1017.97
2019-02-26T02:52:17.017Z,1017.97
2019-02-26T02:53:18.611Z,1017.98
2019-02-26T02:54:18.688Z,1017.95
2019-02-26T02:55:19.323Z,1017.95
2019-02-26T02:56:17.979Z,1017.96
2019-02-26T02:57:16.951Z,1017.94
2019-02-26T02:58:18.252Z,1017.93
2019-02-26T02:59:16.934Z,1017.91
2019-02-26T03:00:16.983Z,1017.92
2019-02-26T03:01:19.542Z,1017.91
2019-02-26T03:02:17.656Z,1017.89
2019-02-26T03:03:16.875Z,1017.91
2019-02-26T03:04:19.591Z,1017.92
2019-02-26T03:05:16.853Z,1017.91
2019-02-26T03:06:16.839Z,1017.91
2019-02-26T03:07:17.841Z,1017.91
2019-02-26T03:08:19.419Z,1017.92
2019-02-26T03:09:17.799Z,1017.94
2019-02-26T03:10:16.798Z,1017.93
2019-02-26T03:11:16.775Z,1017.89
2019-02-26T03:12:16.762Z,1017.90
2019-02-26T03:13:16.983Z,1017.94
2019-02-26T03:14:18.661Z,1017.90
2019-02-26T03:15:16.728Z,1017.88
2019-02-26T03:16:18.972Z,1017.83
2019-02-26T03:17:18.209Z,1017.84
2019-02-26T03:18:16.954Z,1017.85
2019-02-26T03:19:17.045Z,1017.82
2019-02-26T03:20:16.664Z,1017.84
2019-02-26T03:21:19.581Z,1017.82
2019-02-26T03:22:18.903Z,1017.81
2019-02-26T03:23:19.788Z,1017.86
2019-02-26T03:24:16.613Z,1017.84
2019-02-26T03:25:20.059Z,1017.84
2019-02-26T03:26:17.886Z,1017.82
2019-02-26T03:27:16.576Z,1017.82
2019-02-26T03:28:16.564Z,1017.81
2019-02-26T03:29:16.551Z,1017.82
2019-02-26T03:30:26.074Z,1017.80
2019-02-26T03:31:16.527Z,1017.83
2019-02-26T03:32:16.519Z,1017.80
2019-02-26T03:33:16.502Z,1017.77
2019-02-26T03:34:24.225Z,1017.80
2019-02-26T03:35:19.219Z,1017.79
2019-02-26T03:36:17.321Z,1017.77
2019-02-26T03:37:16.452Z,1017.77
2019-02-26T03:38:18.113Z,1017.84
2019-02-26T03:39:16.427Z,1017.78
2019-02-26T03:40:16.416Z,1017.78
2019-02-26T03:41:17.055Z,1017.75
2019-02-26T03:42:18.591Z,1017.76
2019-02-26T03:43:16.421Z,1017.72
2019-02-26T03:44:16.371Z,1017.76
2019-02-26T03:45:16.352Z,1017.74
2019-02-26T03:46:16.340Z,1017.77
2019-02-26T03:47:18.792Z,1017.79
2019-02-26T03:48:19.328Z,1017.76
2019-02-26T03:49:16.302Z,1017.74
2019-02-26T03:50:16.294Z,1017.74
2019-02-26T03:51:17.851Z,1017.70
2019-02-26T03:52:16.265Z,1017.67
2019-02-26T03:53:16.255Z,1017.68
2019-02-26T03:54:16.240Z,1017.66
2019-02-26T03:55:18.739Z,1017.67
2019-02-26T03:56:18.405Z,1017.61
2019-02-26T03:57:16.854Z,1017.63
2019-02-26T03:58:16.190Z,1017.58
2019-02-26T03:59:16.177Z,1017.59
2019-02-26T04:00:17.432Z,1017.58
2019-02-26T04:01:18.764Z,1017.56
2019-02-26T04:02:18.156Z,1017.56
2019-02-26T04:03:17.446Z,1017.57
2019-02-26T04:04:16.113Z,1017.58
2019-02-26T04:05:16.101Z,1017.57
2019-02-26T04:06:16.088Z,1017.54
2019-02-26T04:07:16.074Z,1017.58
2019-02-26T04:08:17.050Z,1017.56
2019-02-26T04:09:17.252Z,1017.58
2019-02-26T04:10:16.038Z,1017.54
2019-02-26T04:11:16.828Z,1017.54
2019-02-26T04:12:18.300Z,1017.53
2019-02-26T04:13:15.998Z,1017.55
2019-02-26T04:14:18.087Z,1017.59
2019-02-26T04:15:15.972Z,1017.60
2019-02-26T04:16:15.961Z,1017.59
2019-02-26T04:17:15.948Z,1017.64
2019-02-26T04:18:15.935Z,1017.62
2019-02-26T04:19:15.922Z,1017.61
2019-02-26T04:20:15.908Z,1017.60
2019-02-26T04:21:18.305Z,1017.63
2019-02-26T04:22:18.775Z,1017.58
2019-02-26T04:23:18.680Z,1017.62
2019-02-26T04:24:15.858Z,1017.60
2019-02-26T04:25:15.844Z,1017.60
2019-02-26T04:26:18.835Z,1017.58
2019-02-26T04:27:15.818Z,1017.55
2019-02-26T04:28:15.805Z,1017.58
2019-02-26T04:29:15.794Z,1017.60
2019-02-26T04:30:17.058Z,1017.58
2019-02-26T04:31:15.770Z,1017.63
2019-02-26T04:32:18.169Z,1017.63
2019-02-26T04:33:15.748Z,1017.64
2019-02-26T04:34:15.729Z,1017.61
2019-02-26T04:35:15.715Z,1017.59
2019-02-26T04:36:16.953Z,1017.58
2019-02-26T04:37:15.691Z,1017.55
2019-02-26T04:38:15.678Z,1017.57
2019-02-26T04:39:16.921Z,1017.57
2019-02-26T04:40:15.653Z,1017.59
2019-02-26T04:41:16.024Z,1017.59
2019-02-26T04:42:19.765Z,1017.58
2019-02-26T04:43:15.613Z,1017.60
2019-02-26T04:44:15.609Z,1017.60
2019-02-26T04:45:15.586Z,1017.59
2019-02-26T04:46:15.575Z,1017.59
2019-02-26T04:47:15.560Z,1017.61
2019-02-26T04:48:19.315Z,1017.61
2019-02-26T04:49:15.535Z,1017.64
2019-02-26T04:50:15.529Z,1017.59
2019-02-26T04:51:15.558Z,1017.61
2019-02-26T04:52:17.396Z,1017.59
2019-02-26T04:53:15.484Z,1017.60
2019-02-26T04:54:21.185Z,1017.57
2019-02-26T04:55:15.457Z,1017.60
2019-02-26T04:56:15.443Z,1017.55
2019-02-26T04:57:15.430Z,1017.56
2019-02-26T04:58:17.589Z,1017.57
2019-02-26T04:59:16.934Z,1017.61
2019-02-26T05:00:15.391Z,1017.60
2019-02-26T05:01:18.775Z,1017.56
2019-02-26T05:02:15.365Z,1017.62
2019-02-26T05:03:18.082Z,1017.64
2019-02-26T05:04:15.348Z,1017.66
2019-02-26T05:05:15.327Z,1017.64
2019-02-26T05:06:15.314Z,1017.71
2019-02-26T05:07:17.226Z,1017.69
2019-02-26T05:08:17.638Z,1017.71
2019-02-26T05:09:15.277Z,1017.69
2019-02-26T05:10:15.261Z,1017.70
2019-02-26T05:11:30.935Z,1017.71
2019-02-26T05:12:15.234Z,1017.70
2019-02-26T05:13:15.222Z,1017.71
2019-02-26T05:14:20.806Z,1017.73
2019-02-26T05:15:18.073Z,1017.71
2019-02-26T05:16:15.195Z,1017.72
2019-02-26T05:17:15.170Z,1017.71
2019-02-26T05:18:17.628Z,1017.72
2019-02-26T05:19:16.987Z,1017.73
2019-02-26T05:20:16.541Z,1017.74
2019-02-26T05:21:15.119Z,1017.74
2019-02-26T05:22:15.105Z,1017.76
2019-02-26T05:23:15.091Z,1017.78
2019-02-26T05:24:18.068Z,1017.80
2019-02-26T05:25:19.198Z,1017.79
2019-02-26T05:26:16.087Z,1017.85
2019-02-26T05:27:16.438Z,1017.82
2019-02-26T05:28:17.503Z,1017.82
2019-02-26T05:29:15.014Z,1017.85
2019-02-26T05:30:17.180Z,1017.83
2019-02-26T05:31:17.237Z,1017.87
2019-02-26T05:32:14.975Z,1017.87
2019-02-26T05:33:14.962Z,1017.87
2019-02-26T05:34:17.744Z,1017.90
2019-02-26T05:35:17.359Z,1017.92
2019-02-26T05:36:16.990Z,1017.97
2019-02-26T05:37:14.909Z,1017.96
2019-02-26T05:38:14.899Z,1017.99
2019-02-26T05:39:18.045Z,1017.99
2019-02-26T05:40:16.406Z,1018.00
2019-02-26T05:41:14.857Z,1018.02
2019-02-26T05:42:14.843Z,1018.03
2019-02-26T05:43:14.831Z,1017.96
2019-02-26T05:44:14.820Z,1017.98
2019-02-26T05:45:14.804Z,1018.00
2019-02-26T05:46:15.906Z,1017.97
2019-02-26T05:47:18.106Z,1017.97
2019-02-26T05:48:17.795Z,1017.99
2019-02-26T05:49:17.051Z,1017.99
2019-02-26T05:50:16.670Z,1017.97
2019-02-26T05:51:14.721Z,1018.02
2019-02-26T05:52:14.707Z,1018.01
2019-02-26T05:53:14.696Z,1018.01
2019-02-26T05:54:17.817Z,1018.01
2019-02-26T05:55:17.631Z,1018.03
2019-02-26T05:56:17.184Z,1018.03
2019-02-26T05:57:26.082Z,1018.03
2019-02-26T05:58:16.398Z,1018.02
2019-02-26T05:59:15.414Z,1018.06
2019-02-26T06:00:18.184Z,1018.05
2019-02-26T06:01:18.514Z,1018.02
2019-02-26T06:02:16.956Z,1018.04
2019-02-26T06:03:16.304Z,1018.07
2019-02-26T06:04:15.569Z,1018.05
2019-02-26T06:05:17.593Z,1018.07
2019-02-26T06:06:14.521Z,1018.09
2019-02-26T06:07:19.296Z,1018.09
2019-02-26T06:08:14.496Z,1018.08
2019-02-26T06:09:14.483Z,1018.08
2019-02-26T06:10:14.469Z,1018.08
2019-02-26T06:11:16.973Z,1018.12
2019-02-26T06:12:14.443Z,1018.12
2019-02-26T06:13:15.693Z,1018.12
2019-02-26T06:14:14.416Z,1018.11
2019-02-26T06:15:14.404Z,1018.13
2019-02-26T06:16:14.388Z,1018.15
2019-02-26T06:17:15.521Z,1018.15
2019-02-26T06:18:14.375Z,1018.14
2019-02-26T06:19:15.808Z,1018.14
2019-02-26T06:20:14.335Z,1018.11
2019-02-26T06:21:16.506Z,1018.13
2019-02-26T06:22:17.004Z,1018.14
2019-02-26T06:23:14.297Z,1018.10
2019-02-26T06:24:14.282Z,1018.10
2019-02-26T06:25:20.590Z,1018.12
2019-02-26T06:26:17.475Z,1018.12
2019-02-26T06:27:16.610Z,1018.13
2019-02-26T06:28:16.010Z,1018.13
2019-02-26T06:29:14.215Z,1018.12
2019-02-26T06:30:14.204Z,1018.13
2019-02-26T06:31:16.660Z,1018.17
2019-02-26T06:32:14.178Z,1018.17
2019-02-26T06:33:16.338Z,1018.22
2019-02-26T06:34:16.175Z,1018.15
2019-02-26T06:35:16.111Z,1018.16
2019-02-26T06:36:14.122Z,1018.20
2019-02-26T06:37:16.485Z,1018.18
2019-02-26T06:38:14.099Z,1018.17
2019-02-26T06:39:14.086Z,1018.22
2019-02-26T06:40:14.069Z,1018.23
2019-02-26T06:41:14.057Z,1018.23
2019-02-26T06:42:14.572Z,1018.23
2019-02-26T06:43:14.031Z,1018.24
2019-02-26T06:44:14.016Z,1018.25
2019-02-26T06:45:16.643Z,1018.27
2019-02-26T06:46:14.188Z,1018.28
2019-02-26T06:47:13.977Z,1018.28
2019-02-26T06:48:16.926Z,1018.30
2019-02-26T06:49:14.999Z,1018.29
2019-02-26T06:50:16.039Z,1018.28
2019-02-26T06:51:13.924Z,1018.28
2019-02-26T06:52:16.129Z,1018.28
2019-02-26T06:53:16.148Z,1018.30
2019-02-26T06:54:15.481Z,1018.30
2019-02-26T06:55:13.871Z,1018.30
2019-02-26T06:56:15.998Z,1018.34
2019-02-26T06:57:13.847Z,1018.35
2019-02-26T06:58:13.833Z,1018.34
2019-02-26T06:59:13.819Z,1018.37
2019-02-26T07:00:13.806Z,1018.40
2019-02-26T07:01:14.327Z,1018.43
2019-02-26T07:02:13.781Z,1018.40
2019-02-26T07:03:13.767Z,1018.42
2019-02-26T07:04:13.754Z,1018.50
2019-02-26T07:05:13.744Z,1018.49
2019-02-26T07:06:13.728Z,1018.49
2019-02-26T07:07:14.543Z,1018.52
2019-02-26T07:08:13.701Z,1018.53
2019-02-26T07:09:15.715Z,1018.52
2019-02-26T07:10:16.288Z,1018.56
2019-02-26T07:11:13.663Z,1018.57
2019-02-26T07:12:14.614Z,1018.59
2019-02-26T07:13:14.124Z,1018.56
2019-02-26T07:14:13.625Z,1018.58
2019-02-26T07:15:13.610Z,1018.57
2019-02-26T07:16:13.598Z,1018.61
2019-02-26T07:17:13.586Z,1018.61
2019-02-26T07:18:16.976Z,1018.61
2019-02-26T07:19:14.198Z,1018.57
2019-02-26T07:20:13.549Z,1018.54
2019-02-26T07:21:13.543Z,1018.54
2019-02-26T07:22:15.944Z,1018.54
2019-02-26T07:23:15.422Z,1018.54
2019-02-26T07:24:15.265Z,1018.59
2019-02-26T07:25:16.065Z,1018.61
2019-02-26T07:26:14.315Z,1018.64
2019-02-26T07:27:13.912Z,1018.64
2019-02-26T07:28:15.173Z,1018.66
2019-02-26T07:29:17.366Z,1018.67
2019-02-26T07:30:13.421Z,1018.64
2019-02-26T07:31:13.409Z,1018.66
2019-02-26T07:32:14.828Z,1018.66
2019-02-26T07:33:15.000Z,1018.64
2019-02-26T07:34:15.196Z,1018.64
2019-02-26T07:35:16.373Z,1018.65
2019-02-26T07:36:13.346Z,1018.65
2019-02-26T07:37:13.987Z,1018.61
2019-02-26T07:38:13.322Z,1018.66
2019-02-26T07:39:15.326Z,1018.65
2019-02-26T07:40:15.875Z,1018.68
2019-02-26T07:41:13.284Z,1018.72
2019-02-26T07:42:14.720Z,1018.70
2019-02-26T07:43:15.389Z,1018.70
2019-02-26T07:44:15.694Z,1018.70
2019-02-26T07:45:15.348Z,1018.72
2019-02-26T07:46:14.697Z,1018.72
2019-02-26T07:47:13.212Z,1018.71
2019-02-26T07:48:16.240Z,1018.72
2019-02-26T07:49:13.188Z,1018.76
2019-02-26T07:50:14.560Z,1018.76
2019-02-26T07:51:13.165Z,1018.79
2019-02-26T07:52:13.154Z,1018.81
2019-02-26T07:53:14.533Z,1018.79
2019-02-26T07:54:13.133Z,1018.84
2019-02-26T07:55:15.324Z,1018.77
2019-02-26T07:56:13.112Z,1018.80
2019-02-26T07:57:13.103Z,1018.79
2019-02-26T07:58:13.744Z,1018.83
2019-02-26T07:59:15.029Z,1018.83
2019-02-26T08:00:13.076Z,1018.86
2019-02-26T08:01:13.068Z,1018.85
2019-02-26T08:02:13.593Z,1018.87
2019-02-26T08:03:13.052Z,1018.92
2019-02-26T08:04:13.582Z,1018.92
2019-02-26T08:05:13.046Z,1018.94
2019-02-26T08:06:14.042Z,1018.94
2019-02-26T08:07:13.023Z,1018.91
2019-02-26T08:08:14.314Z,1018.95
2019-02-26T08:09:14.673Z,1018.93
2019-02-26T08:10:14.559Z,1018.94
2019-02-26T08:11:14.862Z,1018.95
2019-02-26T08:12:13.723Z,1018.95
2019-02-26T08:13:12.986Z,1018.93
2019-02-26T08:14:14.321Z,1018.94
2019-02-26T08:15:15.471Z,1018.95
2019-02-26T08:16:12.972Z,1018.92
2019-02-26T08:17:12.966Z,1018.91
2019-02-26T08:18:12.962Z,1018.93
2019-02-26T08:19:12.956Z,1018.91
2019-02-26T08:20:14.852Z,1018.88
2019-02-26T08:21:12.949Z,1018.83
2019-02-26T08:22:12.946Z,1018.84
2019-02-26T08:23:14.698Z,1018.76
2019-02-26T08:24:14.777Z,1018.79
2019-02-26T08:25:12.934Z,1018.80
2019-02-26T08:26:12.932Z,1018.78
2019-02-26T08:27:13.591Z,1018.76
2019-02-26T08:28:13.536Z,1018.75
2019-02-26T08:29:12.923Z,1018.76
2019-02-26T08:30:14.750Z,1018.81
2019-02-26T08:31:15.373Z,1018.77
2019-02-26T08:32:15.887Z,1018.79
2019-02-26T08:33:12.913Z,1018.80
2019-02-26T08:34:15.115Z,1018.78
2019-02-26T08:35:12.923Z,1018.76
2019-02-26T08:36:14.082Z,1018.77
2019-02-26T08:37:12.905Z,1018.81
2019-02-26T08:38:12.904Z,1018.75
2019-02-26T08:39:15.622Z,1018.78
2019-02-26T08:40:12.901Z,1018.77
2019-02-26T08:41:12.899Z,1018.76
2019-02-26T08:42:12.900Z,1018.77
2019-02-26T08:43:12.897Z,1018.75
2019-02-26T08:44:12.896Z,1018.76
2019-02-26T08:45:14.949Z,1018.72
2019-02-26T08:46:14.167Z,1018.73
2019-02-26T08:47:13.936Z,1018.74
2019-02-26T08:48:13.281Z,1018.72
2019-02-26T08:49:13.760Z,1018.73
2019-02-26T08:50:14.858Z,1018.76
2019-02-26T08:51:16.178Z,1018.68
2019-02-26T08:52:12.894Z,1018.71
2019-02-26T08:53:12.895Z,1018.68
2019-02-26T08:54:20.501Z,1018.67
2019-02-26T08:55:13.657Z,1018.66
2019-02-26T08:56:12.896Z,1018.66
2019-02-26T08:57:12.897Z,1018.65
2019-02-26T08:58:12.898Z,1018.70
2019-02-26T08:59:12.898Z,1018.68
2019-02-26T09:00:12.901Z,1018.69
2019-02-26T09:01:12.900Z,1018.65
2019-02-26T09:02:12.902Z,1018.69
2019-02-26T09:03:13.867Z,1018.72
2019-02-26T09:04:14.522Z,1018.71
2019-02-26T09:05:12.907Z,1018.70
2019-02-26T09:06:14.604Z,1018.72
2019-02-26T09:07:14.086Z,1018.69
2019-02-26T09:08:14.003Z,1018.68
2019-02-26T09:09:12.914Z,1018.63
2019-02-26T09:10:14.943Z,1018.64
2019-02-26T09:11:13.535Z,1018.62
2019-02-26T09:12:15.126Z,1018.61
2019-02-26T09:13:14.528Z,1018.62
2019-02-26T09:14:14.240Z,1018.63
2019-02-26T09:15:12.928Z,1018.60
2019-02-26T09:16:12.932Z,1018.63
2019-02-26T09:17:12.956Z,1018.66
2019-02-26T09:18:12.939Z,1018.63
2019-02-26T09:19:12.941Z,1018.64
2019-02-26T09:20:14.702Z,1018.65
2019-02-26T09:21:15.140Z,1018.66
2019-02-26T09:22:14.995Z,1018.67
2019-02-26T09:23:16.334Z,1018.67
2019-02-26T09:24:12.959Z,1018.72
2019-02-26T09:25:12.963Z,1018.70
2019-02-26T09:26:12.967Z,1018.69
2019-02-26T09:27:12.969Z,1018.70
2019-02-26T09:28:12.974Z,1018.74
2019-02-26T09:29:14.974Z,1018.72
2019-02-26T09:30:14.067Z,1018.72
2019-02-26T09:31:14.204Z,1018.76
2019-02-26T09:32:14.415Z,1018.72
2019-02-26T09:33:12.994Z,1018.72
2019-02-26T09:34:12.998Z,1018.70
2019-02-26T09:35:13.024Z,1018.78
2019-02-26T09:36:15.045Z,1018.76
2019-02-26T09:37:13.012Z,1018.78
2019-02-26T09:38:15.053Z,1018.77
2019-02-26T09:39:13.584Z,1018.82
2019-02-26T09:40:13.028Z,1018.84
2019-02-26T09:41:14.211Z,1018.81
2019-02-26T09:42:13.039Z,1018.80
2019-02-26T09:43:15.546Z,1018.87
2019-02-26T09:44:13.050Z,1018.87
2019-02-26T09:45:13.170Z,1018.89
2019-02-26T09:46:16.214Z,1018.87
2019-02-26T09:47:13.067Z,1018.90
2019-02-26T09:48:15.235Z,1018.86
2019-02-26T09:49:13.079Z,1018.86
2019-02-26T09:50:15.151Z,1018.90
2019-02-26T09:51:14.750Z,1018.86
2019-02-26T09:52:13.097Z,1018.88
2019-02-26T09:53:13.103Z,1018.90
2019-02-26T09:54:15.117Z,1018.91
2019-02-26T09:55:13.115Z,1018.85
2019-02-26T09:56:13.121Z,1018.87
2019-02-26T09:57:15.555Z,1018.85
2019-02-26T09:58:13.958Z,1018.84
2019-02-26T09:59:14.786Z,1018.85
2019-02-26T10:00:14.587Z,1018.85
2019-02-26T10:01:13.892Z,1018.88
2019-02-26T10:02:13.160Z,1018.85
2019-02-26T10:03:15.043Z,1018.82
2019-02-26T10:04:13.173Z,1018.83
2019-02-26T10:05:14.097Z,1018.87
2019-02-26T10:06:14.162Z,1018.79
2019-02-26T10:07:14.365Z,1018.78
2019-02-26T10:08:13.200Z,1018.78
2019-02-26T10:09:15.695Z,1018.78
2019-02-26T10:10:14.144Z,1018.78
2019-02-26T10:11:13.221Z,1018.76
2019-02-26T10:12:15.678Z,1018.77
2019-02-26T10:13:13.235Z,1018.73
2019-02-26T10:14:15.066Z,1018.76
2019-02-26T10:15:13.251Z,1018.76
2019-02-26T10:16:13.256Z,1018.78
2019-02-26T10:17:14.207Z,1018.77
2019-02-26T10:18:13.270Z,1018.77
2019-02-26T10:19:14.861Z,1018.76
2019-02-26T10:20:13.285Z,1018.78
2019-02-26T10:21:14.819Z,1018.74
2019-02-26T10:22:13.777Z,1018.73
2019-02-26T10:23:13.306Z,1018.71
2019-02-26T10:24:13.313Z,1018.73
2019-02-26T10:25:15.170Z,1018.73
2019-02-26T10:26:13.328Z,1018.70
2019-02-26T10:27:14.459Z,1018.72
2019-02-26T10:28:14.093Z,1018.70
2019-02-26T10:29:13.353Z,1018.73
2019-02-26T10:30:14.432Z,1018.74
2019-02-26T10:31:13.365Z,1018.77
2019-02-26T10:32:13.374Z,1018.78
2019-02-26T10:33:17.405Z,1018.79
2019-02-26T10:34:15.608Z,1018.76
2019-02-26T10:35:15.936Z,1018.75
2019-02-26T10:36:15.517Z,1018.81
2019-02-26T10:37:13.413Z,1018.81
2019-02-26T10:38:13.422Z,1018.79
2019-02-26T10:39:15.095Z,1018.83
2019-02-26T10:40:14.472Z,1018.77
2019-02-26T10:41:13.443Z,1018.76
2019-02-26T10:42:13.452Z,1018.76
2019-02-26T10:43:13.459Z,1018.71
2019-02-26T10:44:14.720Z,1018.69
2019-02-26T10:45:13.476Z,1018.72
2019-02-26T10:46:13.483Z,1018.70
2019-02-26T10:47:13.491Z,1018.71
2019-02-26T10:48:15.958Z,1018.67
2019-02-26T10:49:13.507Z,1018.68
2019-02-26T10:50:16.186Z,1018.72
2019-02-26T10:51:16.644Z,1018.69
2019-02-26T10:52:16.868Z,1018.69
2019-02-26T10:53:16.140Z,1018.70
2019-02-26T10:54:17.799Z,1018.71
2019-02-26T10:55:17.205Z,1018.71
2019-02-26T10:56:13.563Z,1018.69
2019-02-26T10:57:14.423Z,1018.67
2019-02-26T10:58:13.611Z,1018.71
2019-02-26T10:59:15.785Z,1018.68
2019-02-26T11:00:13.603Z,1018.64
2019-02-26T11:01:13.603Z,1018.71
2019-02-26T11:02:14.697Z,1018.70
2019-02-26T11:03:14.990Z,1018.64
2019-02-26T11:04:13.628Z,1018.66
2019-02-26T11:05:14.264Z,1018.65
2019-02-26T11:06:16.765Z,1018.68
2019-02-26T11:07:14.275Z,1018.68
2019-02-26T11:08:13.665Z,1018.68
2019-02-26T11:09:17.252Z,1018.68
2019-02-26T11:10:14.659Z,1018.67
2019-02-26T11:11:16.028Z,1018.71
2019-02-26T11:12:13.698Z,1018.70
2019-02-26T11:13:15.894Z,1018.68
2019-02-26T11:14:16.586Z,1018.68
2019-02-26T11:15:13.722Z,1018.70
2019-02-26T11:16:17.455Z,1018.68
2019-02-26T11:17:13.740Z,1018.63
2019-02-26T11:18:15.007Z,1018.67
2019-02-26T11:19:13.756Z,1018.66
2019-02-26T11:20:13.764Z,1018.63
2019-02-26T11:21:13.773Z,1018.61
2019-02-26T11:22:17.666Z,1018.59
2019-02-26T11:23:16.109Z,1018.60
2019-02-26T11:24:13.797Z,1018.58
2019-02-26T11:25:15.798Z,1018.60
2019-02-26T11:26:15.423Z,1018.57
2019-02-26T11:27:13.822Z,1018.60
2019-02-26T11:28:13.827Z,1018.65
2019-02-26T11:29:13.836Z,1018.61
2019-02-26T11:30:13.842Z,1018.61
2019-02-26T11:31:14.648Z,1018.62
2019-02-26T11:32:15.529Z,1018.58
2019-02-26T11:33:15.595Z,1018.60
2019-02-26T11:34:13.871Z,1018.57
2019-02-26T11:35:14.666Z,1018.56
2019-02-26T11:36:15.664Z,1018.56
2019-02-26T11:37:13.891Z,1018.56
2019-02-26T11:38:14.922Z,1018.52
2019-02-26T11:39:13.903Z,1018.54
2019-02-26T11:40:13.910Z,1018.53
2019-02-26T11:41:13.917Z,1018.53
2019-02-26T11:42:15.861Z,1018.49
2019-02-26T11:43:14.952Z,1018.49
2019-02-26T11:44:19.031Z,1018.48
2019-02-26T11:45:14.337Z,1018.50
2019-02-26T11:46:13.949Z,1018.48
2019-02-26T11:47:16.072Z,1018.47
2019-02-26T11:48:13.959Z,1018.42
2019-02-26T11:49:16.320Z,1018.48
2019-02-26T11:50:13.971Z,1018.46
2019-02-26T11:51:16.820Z,1018.40
2019-02-26T11:52:13.982Z,1018.41
2019-02-26T11:53:13.988Z,1018.43
2019-02-26T11:54:15.091Z,1018.39
2019-02-26T11:55:13.997Z,1018.38
2019-02-26T11:56:15.875Z,1018.39
2019-02-26T11:57:15.390Z,1018.42
2019-02-26T11:58:16.020Z,1018.38
2019-02-26T11:59:14.907Z,1018.39
2019-02-26T12:00:24.376Z,1018.40
2019-02-26T12:01:14.030Z,1018.36
2019-02-26T12:02:14.035Z,1018.36
2019-02-26T12:03:14.038Z,1018.33
2019-02-26T12:04:16.537Z,1018.36
2019-02-26T12:05:14.049Z,1018.36